createdAt,value
2023-04-05T00:00:14.732Z,0.00
2023-04-05T00:01:14.685Z,0.00
2023-04-05T00:03:09.809Z,0.00
2023-04-05T00:04:09.780Z,0.00
2023-04-05T00:06:04.861Z,0.00
2023-04-05T00:07:04.831Z,0.00
2023-04-05T00:08:59.919Z,0.00
2023-04-05T00:09:59.891Z,0.00
2023-04-05T00:11:54.043Z,0.00
2023-04-05T00:12:54.021Z,0.00
2023-04-05T00:14:49.414Z,0.00
2023-04-05T00:15:49.390Z,0.00
2023-04-05T00:17:44.794Z,0.00
2023-04-05T00:18:44.757Z,0.00
2023-04-05T00:20:39.170Z,0.00
2023-04-05T00:21:38.807Z,0.00
2023-04-05T00:23:34.893Z,0.00
2023-04-05T00:24:34.871Z,0.00
2023-04-05T00:26:29.996Z,0.00
2023-04-05T00:27:29.974Z,0.00
2023-04-05T00:29:25.092Z,0.00
2023-04-05T00:30:25.073Z,0.00
2023-04-05T00:32:19.258Z,0.00
2023-04-05T00:33:19.182Z,0.00
2023-04-05T00:35:14.080Z,0.00
2023-04-05T00:36:14.169Z,0.00
2023-04-05T00:38:09.360Z,0.00
2023-04-05T00:39:09.352Z,0.00
2023-04-05T00:41:04.436Z,0.00
2023-04-05T00:42:04.422Z,0.00
2023-04-05T00:43:59.441Z,0.00
2023-04-05T00:44:59.430Z,0.00
2023-04-05T00:46:54.481Z,0.00
2023-04-05T00:47:54.469Z,0.00
2023-04-05T00:49:50.596Z,0.00
2023-04-05T00:50:50.573Z,0.00
2023-04-05T00:52:46.765Z,0.00
2023-04-05T00:53:46.748Z,0.00
2023-04-05T00:55:41.991Z,0.00
2023-04-05T00:56:41.984Z,0.00
2023-04-05T00:58:38.084Z,0.00
2023-04-05T00:59:38.084Z,0.00
2023-04-05T01:01:32.453Z,0.00
2023-04-05T01:02:32.367Z,0.00
2023-04-05T01:04:27.600Z,0.00
2023-04-05T01:05:27.462Z,0.00
2023-04-05T01:07:22.630Z,0.00
2023-04-05T01:08:22.610Z,0.00
2023-04-05T01:10:17.745Z,0.00
2023-04-05T01:11:17.715Z,0.00
2023-04-05T01:13:12.861Z,0.00
2023-04-05T01:14:12.841Z,0.00
2023-04-05T01:16:09.594Z,0.00
2023-04-05T01:17:09.554Z,0.00
2023-04-05T01:19:04.693Z,0.00
2023-04-05T01:20:04.667Z,0.00
2023-04-05T01:22:00.803Z,0.00
2023-04-05T01:23:00.780Z,0.00
2023-04-05T01:24:57.655Z,0.00
2023-04-05T01:25:57.598Z,0.00
2023-04-05T01:27:53.951Z,0.00
2023-04-05T01:28:53.919Z,0.00
2023-04-05T01:30:49.343Z,0.00
2023-04-05T01:31:49.317Z,0.00
2023-04-05T01:33:43.497Z,0.00
2023-04-05T01:34:43.492Z,0.00
2023-04-05T01:36:37.730Z,0.00
2023-04-05T01:37:37.715Z,0.00
2023-04-05T01:39:34.331Z,0.00
2023-04-05T01:40:34.308Z,0.00
2023-04-05T01:42:28.620Z,0.00
2023-04-05T01:43:28.607Z,0.00
2023-04-05T01:45:23.750Z,0.00
2023-04-05T01:46:23.794Z,0.00
2023-04-05T01:48:18.934Z,0.00
2023-04-05T01:49:18.918Z,0.00
2023-04-05T01:51:14.326Z,0.00
2023-04-05T01:52:14.317Z,0.00
2023-04-05T01:54:08.570Z,0.00
2023-04-05T01:55:08.580Z,0.00
2023-04-05T01:57:04.819Z,0.00
2023-04-05T01:58:04.806Z,0.00
2023-04-05T02:00:01.019Z,0.00
2023-04-05T02:01:01.007Z,0.00
2023-04-05T02:02:55.110Z,0.00
2023-04-05T02:03:55.235Z,0.00
2023-04-05T02:05:50.162Z,0.00
2023-04-05T02:06:50.140Z,0.00
2023-04-05T02:08:45.383Z,0.00
2023-04-05T02:09:45.354Z,0.00
2023-04-05T02:11:40.509Z,0.00
2023-04-05T02:12:40.482Z,0.00
2023-04-05T02:14:36.645Z,0.00
2023-04-05T02:15:36.619Z,0.00
2023-04-05T02:17:32.101Z,0.00
2023-04-05T02:18:32.068Z,0.00
2023-04-05T02:20:26.161Z,0.00
2023-04-05T02:21:26.181Z,0.00
2023-04-05T02:23:21.244Z,0.00
2023-04-05T02:24:21.207Z,0.00
2023-04-05T02:26:16.535Z,0.00
2023-04-05T02:27:16.516Z,0.00
2023-04-05T02:29:11.599Z,0.00
2023-04-05T02:30:11.578Z,0.00
2023-04-05T02:32:06.797Z,0.00
2023-04-05T02:33:06.808Z,0.00
2023-04-05T02:35:01.537Z,0.00
2023-04-05T02:36:01.520Z,0.00
2023-04-05T02:37:56.520Z,0.00
2023-04-05T02:38:56.502Z,0.00
2023-04-05T02:40:51.690Z,0.00
2023-04-05T02:41:51.665Z,0.00
2023-04-05T02:43:45.723Z,0.00
2023-04-05T02:44:45.711Z,0.00
2023-04-05T02:46:40.817Z,0.00
2023-04-05T02:47:40.836Z,0.00
2023-04-05T02:49:35.868Z,0.00
2023-04-05T02:50:35.837Z,0.00
2023-04-05T02:52:30.955Z,0.00
2023-04-05T02:53:30.935Z,0.00
2023-04-05T02:55:25.997Z,0.00
2023-04-05T02:56:25.981Z,0.00
2023-04-05T02:58:21.285Z,0.00
2023-04-05T02:59:21.316Z,0.00
2023-04-05T03:01:16.436Z,0.00
2023-04-05T03:02:16.388Z,0.00
2023-04-05T03:04:12.678Z,0.00
2023-04-05T03:05:12.633Z,0.00
2023-04-05T03:07:08.562Z,0.00
2023-04-05T03:08:08.553Z,0.00
2023-04-05T03:10:02.786Z,0.00
2023-04-05T03:11:02.757Z,0.00
2023-04-05T03:12:56.904Z,0.00
2023-04-05T03:13:56.882Z,0.00
2023-04-05T03:15:52.165Z,0.00
2023-04-05T03:16:52.155Z,0.00
2023-04-05T03:18:47.416Z,0.00
2023-04-05T03:19:47.387Z,0.00
2023-04-05T03:21:42.827Z,0.00
2023-04-05T03:22:42.799Z,0.00
2023-04-05T03:24:37.906Z,0.00
2023-04-05T03:25:37.966Z,0.00
2023-04-05T03:27:33.032Z,0.00
2023-04-05T03:28:33.039Z,0.00
2023-04-05T03:30:28.286Z,0.00
2023-04-05T03:31:28.304Z,0.00
2023-04-05T03:33:23.059Z,0.00
2023-04-05T03:34:23.064Z,0.00
2023-04-05T03:36:18.507Z,0.00
2023-04-05T03:37:18.488Z,0.00
2023-04-05T03:39:14.926Z,0.00
2023-04-05T03:40:14.917Z,0.00
2023-04-05T03:42:09.974Z,0.00
2023-04-05T03:43:09.956Z,0.00
2023-04-05T03:45:04.065Z,0.00
2023-04-05T03:46:04.033Z,0.00
2023-04-05T03:47:58.211Z,0.00
2023-04-05T03:48:58.171Z,0.00
2023-04-05T03:50:54.242Z,0.00
2023-04-05T03:51:54.205Z,0.00
2023-04-05T03:53:48.365Z,0.00
2023-04-05T03:54:48.351Z,0.00
2023-04-05T03:56:43.665Z,0.00
2023-04-05T03:57:43.613Z,0.00
2023-04-05T03:59:39.776Z,0.00
2023-04-05T04:00:39.753Z,0.00
2023-04-05T04:02:34.874Z,0.00
2023-04-05T04:03:34.834Z,0.00
2023-04-05T04:05:30.958Z,0.00
2023-04-05T04:06:31.028Z,0.00
2023-04-05T04:08:26.247Z,0.00
2023-04-05T04:09:26.221Z,0.00
2023-04-05T04:11:22.555Z,0.00
2023-04-05T04:12:22.517Z,0.00
2023-04-05T04:14:18.864Z,0.00
2023-04-05T04:15:18.854Z,0.00
2023-04-05T04:17:13.993Z,0.00
2023-04-05T04:18:13.977Z,0.00
2023-04-05T04:20:10.594Z,0.00
2023-04-05T04:21:10.581Z,0.00
2023-04-05T04:23:05.680Z,0.00
2023-04-05T04:24:05.664Z,0.00
2023-04-05T04:26:01.838Z,0.00
2023-04-05T04:27:01.774Z,0.00
2023-04-05T04:28:56.988Z,0.00
2023-04-05T04:29:56.948Z,0.00
2023-04-05T04:31:52.250Z,0.00
2023-04-05T04:32:52.462Z,0.00
2023-04-05T04:34:47.083Z,0.00
2023-04-05T04:35:47.267Z,0.00
2023-04-05T04:37:42.221Z,0.00
2023-04-05T04:38:42.206Z,0.00
2023-04-05T04:40:37.648Z,4.00
2023-04-05T04:41:37.634Z,4.00
2023-04-05T04:43:32.809Z,4.00
2023-04-05T04:44:32.792Z,4.00
2023-04-05T04:46:28.097Z,8.00
2023-04-05T04:47:28.091Z,8.00
2023-04-05T04:49:31.063Z,8.00
2023-04-05T04:50:23.349Z,12.00
2023-04-05T04:51:23.247Z,12.00
2023-04-05T04:52:23.261Z,16.00
2023-04-05T04:53:24.387Z,16.00
2023-04-05T04:54:23.202Z,20.00
2023-04-05T04:55:23.189Z,24.00
2023-04-05T04:56:23.176Z,28.00
2023-04-05T04:57:23.160Z,28.00
2023-04-05T04:58:23.159Z,32.00
2023-04-05T04:59:23.194Z,32.00
2023-04-05T05:00:23.135Z,40.00
2023-04-05T05:01:23.155Z,40.00
2023-04-05T05:02:23.142Z,44.00
2023-04-05T05:03:23.094Z,52.00
2023-04-05T05:04:23.165Z,56.00
2023-04-05T05:05:23.171Z,60.00
2023-04-05T05:06:23.094Z,64.00
2023-04-05T05:07:23.055Z,64.00
2023-04-05T05:08:23.043Z,72.00
2023-04-05T05:09:23.032Z,76.00
2023-04-05T05:10:23.069Z,84.00
2023-04-05T05:11:23.002Z,88.00
2023-04-05T05:12:23.000Z,96.00
2023-04-05T05:13:22.979Z,100.00
2023-04-05T05:14:22.985Z,104.00
2023-04-05T05:15:22.962Z,112.00
2023-04-05T05:16:23.004Z,120.00
2023-04-05T05:17:22.990Z,124.00
2023-04-05T05:18:22.938Z,128.00
2023-04-05T05:19:22.924Z,136.00
2023-04-05T05:20:22.901Z,144.00
2023-04-05T05:21:22.916Z,148.00
2023-04-05T05:22:22.893Z,156.00
2023-04-05T05:23:22.894Z,164.00
2023-04-05T05:24:22.889Z,168.00
2023-04-05T05:25:22.864Z,176.00
2023-04-05T05:26:22.832Z,180.00
2023-04-05T05:27:22.832Z,184.00
2023-04-05T05:28:22.801Z,192.00
2023-04-05T05:29:22.820Z,200.00
2023-04-05T05:30:22.791Z,208.00
2023-04-05T05:31:22.885Z,212.00
2023-04-05T05:32:22.777Z,220.00
2023-04-05T05:33:22.764Z,224.00
2023-04-05T05:34:22.739Z,232.00
2023-04-05T05:35:22.809Z,244.00
2023-04-05T05:36:22.715Z,248.00
2023-04-05T05:37:22.705Z,256.00
2023-04-05T05:38:22.703Z,260.00
2023-04-05T05:39:22.694Z,264.00
2023-04-05T05:40:22.678Z,272.00
2023-04-05T05:41:22.657Z,276.00
2023-04-05T05:42:22.653Z,284.00
2023-04-05T05:43:22.640Z,288.00
2023-04-05T05:44:22.643Z,296.00
2023-04-05T05:45:22.585Z,304.00
2023-04-05T05:46:22.592Z,308.00
2023-04-05T05:47:22.634Z,312.00
2023-04-05T05:48:22.575Z,320.00
2023-04-05T05:49:22.539Z,324.00
2023-04-05T05:50:22.537Z,332.00
2023-04-05T05:51:22.541Z,336.00
2023-04-05T05:52:22.543Z,340.00
2023-04-05T05:53:22.490Z,344.00
2023-04-05T05:54:22.491Z,352.00
2023-04-05T05:55:22.519Z,356.00
2023-04-05T05:56:22.466Z,360.00
2023-04-05T05:57:22.472Z,364.00
2023-04-05T05:58:22.463Z,372.00
2023-04-05T05:59:22.510Z,376.00
2023-04-05T06:00:22.430Z,384.00
2023-04-05T06:01:22.439Z,384.00
2023-04-05T06:02:22.448Z,392.00
2023-04-05T06:03:22.486Z,396.00
2023-04-05T06:04:22.623Z,400.00
2023-04-05T06:05:22.344Z,408.00
2023-04-05T06:06:22.360Z,412.00
2023-04-05T06:07:22.334Z,420.00
2023-04-05T06:08:22.335Z,420.00
2023-04-05T06:09:22.297Z,428.00
2023-04-05T06:10:22.287Z,432.00
2023-04-05T06:11:22.309Z,440.00
2023-04-05T06:12:22.292Z,444.00
2023-04-05T06:13:22.246Z,444.00
2023-04-05T06:14:22.272Z,452.00
2023-04-05T06:15:22.239Z,456.00
2023-04-05T06:16:22.342Z,460.00
2023-04-05T06:17:22.197Z,464.00
2023-04-05T06:18:22.185Z,472.00
2023-04-05T06:19:22.173Z,472.00
2023-04-05T06:20:22.188Z,480.00
2023-04-05T06:21:22.162Z,480.00
2023-04-05T06:22:22.158Z,488.00
2023-04-05T06:23:22.129Z,492.00
2023-04-05T06:24:22.154Z,500.00
2023-04-05T06:25:22.146Z,504.00
2023-04-05T06:26:22.089Z,504.00
2023-04-05T06:27:22.125Z,512.00
2023-04-05T06:28:22.067Z,516.00
2023-04-05T06:29:22.094Z,520.00
2023-04-05T06:30:22.084Z,524.00
2023-04-05T06:31:22.060Z,528.00
2023-04-05T06:32:23.534Z,532.00
2023-04-05T06:33:22.011Z,536.00
2023-04-05T06:34:22.004Z,544.00
2023-04-05T06:35:21.990Z,548.00
2023-04-05T06:36:21.970Z,548.00
2023-04-05T06:37:21.978Z,552.00
2023-04-05T06:38:22.033Z,560.00
2023-04-05T06:39:21.973Z,564.00
2023-04-05T06:40:21.968Z,568.00
2023-04-05T06:41:21.901Z,572.00
2023-04-05T06:42:21.909Z,576.00
2023-04-05T06:43:21.909Z,584.00
2023-04-05T06:44:21.868Z,584.00
2023-04-05T06:45:21.859Z,592.00
2023-04-05T06:46:21.924Z,596.00
2023-04-05T06:47:21.865Z,596.00
2023-04-05T06:48:21.850Z,604.00
2023-04-05T06:49:21.840Z,596.00
2023-04-05T06:50:21.803Z,612.00
2023-04-05T06:51:21.813Z,616.00
2023-04-05T06:52:21.800Z,620.00
2023-04-05T06:53:21.785Z,624.00
2023-04-05T06:54:21.775Z,628.00
2023-04-05T06:55:21.777Z,632.00
2023-04-05T06:56:21.768Z,636.00
2023-04-05T06:57:21.715Z,636.00
2023-04-05T06:58:21.710Z,640.00
2023-04-05T06:59:21.757Z,640.00
2023-04-05T07:00:21.717Z,644.00
2023-04-05T07:01:21.724Z,652.00
2023-04-05T07:02:21.675Z,656.00
2023-04-05T07:03:21.671Z,656.00
2023-04-05T07:04:21.674Z,660.00
2023-04-05T07:05:21.634Z,664.00
2023-04-05T07:06:21.649Z,668.00
2023-04-05T07:07:21.617Z,668.00
2023-04-05T07:08:21.597Z,672.00
2023-04-05T07:09:21.619Z,676.00
2023-04-05T07:10:21.598Z,680.00
2023-04-05T07:11:21.609Z,680.00
2023-04-05T07:12:21.558Z,688.00
2023-04-05T07:13:21.577Z,692.00
2023-04-05T07:14:21.717Z,696.00
2023-04-05T07:15:21.535Z,696.00
2023-04-05T07:16:21.585Z,696.00
2023-04-05T07:17:21.538Z,704.00
2023-04-05T07:18:21.488Z,708.00
2023-04-05T07:19:21.471Z,708.00
2023-04-05T07:20:21.495Z,708.00
2023-04-05T07:21:21.452Z,716.00
2023-04-05T07:22:21.442Z,716.00
2023-04-05T07:23:22.607Z,720.00
2023-04-05T07:24:21.425Z,724.00
2023-04-05T07:25:21.428Z,728.00
2023-04-05T07:26:21.408Z,732.00
2023-04-05T07:27:21.417Z,736.00
2023-04-05T07:28:21.376Z,736.00
2023-04-05T07:29:21.978Z,740.00
2023-04-05T07:30:21.368Z,744.00
2023-04-05T07:31:21.365Z,752.00
2023-04-05T07:32:21.371Z,756.00
2023-04-05T07:33:21.356Z,756.00
2023-04-05T07:34:21.337Z,760.00
2023-04-05T07:35:21.327Z,764.00
2023-04-05T07:36:21.301Z,768.00
2023-04-05T07:37:21.304Z,772.00
2023-04-05T07:38:21.276Z,772.00
2023-04-05T07:39:21.259Z,776.00
2023-04-05T07:40:21.266Z,780.00
2023-04-05T07:41:21.256Z,780.00
2023-04-05T07:42:21.226Z,784.00
2023-04-05T07:43:21.253Z,788.00
2023-04-05T07:44:21.224Z,788.00
2023-04-05T07:45:21.220Z,792.00
2023-04-05T07:46:21.216Z,796.00
2023-04-05T07:47:21.167Z,800.00
2023-04-05T07:48:21.195Z,808.00
2023-04-05T07:49:21.160Z,812.00
2023-04-05T07:50:21.138Z,812.00
2023-04-05T07:51:21.148Z,816.00
2023-04-05T07:52:21.143Z,820.00
2023-04-05T07:53:21.091Z,820.00
2023-04-05T07:54:21.112Z,828.00
2023-04-05T07:55:21.080Z,828.00
2023-04-05T07:56:21.102Z,832.00
2023-04-05T07:57:21.107Z,840.00
2023-04-05T07:58:21.050Z,840.00
2023-04-05T07:59:21.115Z,844.00
2023-04-05T08:00:21.034Z,844.00
2023-04-05T08:01:21.037Z,848.00
2023-04-05T08:02:21.024Z,852.00
2023-04-05T08:03:21.119Z,860.00
2023-04-05T08:04:21.013Z,864.00
2023-04-05T08:05:21.011Z,864.00
2023-04-05T08:06:20.959Z,864.00
2023-04-05T08:07:20.987Z,872.00
2023-04-05T08:08:21.009Z,872.00
2023-04-05T08:09:20.982Z,880.00
2023-04-05T08:10:20.956Z,884.00
2023-04-05T08:11:20.930Z,876.00
2023-04-05T08:12:20.930Z,864.00
2023-04-05T08:13:20.908Z,876.00
2023-04-05T08:14:20.882Z,876.00
2023-04-05T08:15:20.927Z,876.00
2023-04-05T08:16:20.921Z,880.00
2023-04-05T08:17:21.062Z,888.00
2023-04-05T08:18:20.845Z,900.00
2023-04-05T08:19:20.858Z,904.00
2023-04-05T08:20:20.830Z,908.00
2023-04-05T08:21:20.886Z,908.00
2023-04-05T08:22:20.831Z,912.00
2023-04-05T08:23:20.779Z,916.00
2023-04-05T08:24:20.867Z,924.00
2023-04-05T08:25:20.792Z,928.00
2023-04-05T08:26:20.769Z,936.00
2023-04-05T08:27:20.771Z,940.00
2023-04-05T08:28:20.800Z,944.00
2023-04-05T08:29:20.730Z,948.00
2023-04-05T08:30:20.718Z,956.00
2023-04-05T08:31:20.721Z,960.00
2023-04-05T08:32:20.749Z,960.00
2023-04-05T08:33:20.724Z,968.00
2023-04-05T08:34:20.708Z,972.00
2023-04-05T08:35:20.704Z,976.00
2023-04-05T08:36:20.665Z,984.00
2023-04-05T08:37:20.676Z,984.00
2023-04-05T08:38:20.663Z,980.00
2023-04-05T08:39:20.615Z,992.00
2023-04-05T08:40:20.667Z,1000.00
2023-04-05T08:41:20.653Z,1004.00
2023-04-05T08:42:20.614Z,1008.00
2023-04-05T08:43:20.689Z,1016.00
2023-04-05T08:44:20.612Z,1028.00
2023-04-05T08:45:20.575Z,1036.00
2023-04-05T08:46:20.600Z,1048.00
2023-04-05T08:47:20.609Z,1060.00
2023-04-05T08:48:20.540Z,1068.00
2023-04-05T08:49:20.535Z,1076.00
2023-04-05T08:50:20.538Z,1080.00
2023-04-05T08:51:20.537Z,1076.00
2023-04-05T08:52:20.519Z,1076.00
2023-04-05T08:53:20.501Z,1092.00
2023-04-05T08:54:20.502Z,1116.00
2023-04-05T08:55:20.471Z,1124.00
2023-04-05T08:56:20.456Z,1132.00
2023-04-05T08:57:20.470Z,1148.00
2023-04-05T08:58:20.469Z,1160.00
2023-04-05T08:59:20.448Z,1164.00
2023-04-05T09:00:20.417Z,1184.00
2023-04-05T09:01:20.436Z,1196.00
2023-04-05T09:02:20.457Z,1208.00
2023-04-05T09:03:20.479Z,1228.00
2023-04-05T09:04:20.402Z,1228.00
2023-04-05T09:05:20.400Z,1224.00
2023-04-05T09:06:20.385Z,1240.00
2023-04-05T09:07:20.350Z,1256.00
2023-04-05T09:08:20.386Z,1268.00
2023-04-05T09:09:20.356Z,1300.00
2023-04-05T09:10:20.337Z,1308.00
2023-04-05T09:11:20.318Z,1320.00
2023-04-05T09:12:20.332Z,1348.00
2023-04-05T09:13:20.355Z,1360.00
2023-04-05T09:14:20.294Z,1376.00
2023-04-05T09:15:20.301Z,1392.00
2023-04-05T09:16:20.337Z,1392.00
2023-04-05T09:17:20.283Z,1400.00
2023-04-05T09:18:26.758Z,1404.00
2023-04-05T09:19:20.239Z,1340.00
2023-04-05T09:20:20.250Z,1448.00
2023-04-05T09:21:20.245Z,1464.00
2023-04-05T09:22:20.221Z,1460.00
2023-04-05T09:23:20.228Z,1504.00
2023-04-05T09:24:20.219Z,1516.00
2023-04-05T09:25:20.212Z,1536.00
2023-04-05T09:26:20.208Z,1536.00
2023-04-05T09:27:20.215Z,1580.00
2023-04-05T09:28:20.192Z,1604.00
2023-04-05T09:29:20.150Z,1524.00
2023-04-05T09:30:20.175Z,1572.00
2023-04-05T09:31:20.201Z,1676.00
2023-04-05T09:32:20.126Z,1752.00
2023-04-05T09:33:20.160Z,1716.00
2023-04-05T09:34:20.151Z,1760.00
2023-04-05T09:35:20.107Z,1784.00
2023-04-05T09:36:20.119Z,1796.00
2023-04-05T09:37:20.319Z,1836.00
2023-04-05T09:38:20.080Z,1876.00
2023-04-05T09:39:20.090Z,1940.00
2023-04-05T09:40:20.103Z,1992.00
2023-04-05T09:41:20.072Z,2020.00
2023-04-05T09:42:20.060Z,2060.00
2023-04-05T09:43:20.033Z,1892.00
2023-04-05T09:44:20.043Z,2204.00
2023-04-05T09:45:20.046Z,2240.00
2023-04-05T09:46:20.112Z,2284.00
2023-04-05T09:47:20.038Z,2312.00
2023-04-05T09:48:20.014Z,2360.00
2023-04-05T09:49:20.014Z,2392.00
2023-04-05T09:50:20.018Z,2452.00
2023-04-05T09:51:20.006Z,2524.00
2023-04-05T09:52:19.984Z,4892.00
2023-04-05T09:53:19.988Z,14608.00
2023-04-05T09:54:19.961Z,22528.00
2023-04-05T09:55:19.961Z,25952.00
2023-04-05T09:56:19.974Z,25312.00
2023-04-05T09:57:19.923Z,25568.00
2023-04-05T09:58:19.936Z,25472.00
2023-04-05T09:59:19.944Z,25344.00
2023-04-05T10:00:19.935Z,25120.00
2023-04-05T10:01:19.960Z,22560.00
2023-04-05T10:02:19.935Z,12196.00
2023-04-05T10:03:20.037Z,16192.00
2023-04-05T10:04:19.876Z,23136.00
2023-04-05T10:05:19.881Z,25600.00
2023-04-05T10:06:19.866Z,26336.00
2023-04-05T10:07:19.917Z,29824.00
2023-04-05T10:08:19.881Z,29472.00
2023-04-05T10:09:19.851Z,28832.00
2023-04-05T10:10:19.880Z,25376.00
2023-04-05T10:11:19.876Z,24032.00
2023-04-05T10:12:19.855Z,23136.00
2023-04-05T10:13:19.857Z,21376.00
2023-04-05T10:14:19.835Z,20160.00
2023-04-05T10:15:19.823Z,20480.00
2023-04-05T10:16:19.899Z,20288.00
2023-04-05T10:17:19.805Z,19680.00
2023-04-05T10:18:19.888Z,19552.00
2023-04-05T10:19:19.801Z,19168.00
2023-04-05T10:20:19.817Z,17792.00
2023-04-05T10:21:19.790Z,15648.00
2023-04-05T10:22:19.836Z,10588.00
2023-04-05T10:23:19.815Z,15144.00
2023-04-05T10:24:19.833Z,22848.00
2023-04-05T10:25:19.804Z,23552.00
2023-04-05T10:26:19.796Z,23520.00
2023-04-05T10:27:19.800Z,23392.00
2023-04-05T10:28:19.788Z,23296.00
2023-04-05T10:29:19.799Z,23392.00
2023-04-05T10:30:19.818Z,23200.00
2023-04-05T10:31:34.141Z,23264.00
2023-04-05T10:32:19.848Z,23296.00
2023-04-05T10:33:19.834Z,23040.00
2023-04-05T10:34:19.740Z,23168.00
2023-04-05T10:35:19.771Z,23040.00
2023-04-05T10:36:19.830Z,23008.00
2023-04-05T10:37:19.764Z,23136.00
2023-04-05T10:38:19.788Z,23136.00
2023-04-05T10:39:19.786Z,23136.00
2023-04-05T10:40:19.820Z,23104.00
2023-04-05T10:41:19.739Z,23328.00
2023-04-05T10:42:19.723Z,23104.00
2023-04-05T10:43:19.759Z,23488.00
2023-04-05T10:44:26.153Z,23840.00
2023-04-05T10:45:19.790Z,24448.00
2023-04-05T10:46:19.847Z,24864.00
2023-04-05T10:47:19.720Z,25504.00
2023-04-05T10:49:54.429Z,29056.00
2023-04-05T10:50:54.419Z,29600.00
2023-04-05T10:52:50.665Z,28032.00
2023-04-05T10:53:50.639Z,27008.00
2023-04-05T10:55:45.804Z,24736.00
2023-04-05T10:56:45.844Z,23712.00
2023-04-05T10:58:42.205Z,22368.00
2023-04-05T10:59:42.316Z,21760.00
2023-04-05T11:01:37.450Z,21216.00
2023-04-05T11:02:37.414Z,20704.00
2023-04-05T11:04:33.980Z,20192.00
2023-04-05T11:05:33.904Z,19840.00
2023-04-05T11:07:30.221Z,19168.00
2023-04-05T11:08:30.228Z,18912.00
2023-04-05T11:10:26.331Z,18144.00
2023-04-05T11:11:26.310Z,17920.00
2023-04-05T11:13:21.416Z,17408.00
2023-04-05T11:14:21.445Z,17120.00
2023-04-05T11:16:16.538Z,16736.00
2023-04-05T11:17:16.492Z,16384.00
2023-04-05T11:19:12.671Z,15904.00
2023-04-05T11:20:12.644Z,15584.00
2023-04-05T11:22:08.518Z,14932.00
2023-04-05T11:23:08.505Z,14756.00
2023-04-05T11:25:03.728Z,14588.00
2023-04-05T11:26:03.744Z,14288.00
2023-04-05T11:27:59.157Z,13992.00
2023-04-05T11:28:59.169Z,13860.00
2023-04-05T11:30:54.313Z,13564.00
2023-04-05T11:31:54.258Z,13520.00
2023-04-05T11:33:55.659Z,13324.00
2023-04-05T11:34:49.537Z,13076.00
2023-04-05T11:36:44.781Z,12800.00
2023-04-05T11:37:44.766Z,12552.00
2023-04-05T11:39:40.289Z,5772.00
2023-04-05T11:40:40.455Z,2424.00
2023-04-05T11:42:35.440Z,1524.00
2023-04-05T11:43:35.428Z,1424.00
2023-04-05T11:45:32.241Z,1380.00
2023-04-05T11:46:30.778Z,1372.00
2023-04-05T11:48:24.876Z,1356.00
2023-04-05T11:49:24.878Z,1352.00
2023-04-05T11:51:20.052Z,1332.00
2023-04-05T11:52:20.044Z,1328.00
2023-04-05T11:54:15.269Z,1312.00
2023-04-05T11:55:15.243Z,1304.00
2023-04-05T11:57:11.319Z,1292.00
2023-04-05T11:58:11.312Z,1288.00
2023-04-05T12:00:05.417Z,1280.00
2023-04-05T12:01:05.394Z,1276.00
2023-04-05T12:03:00.571Z,1272.00
2023-04-05T12:04:00.582Z,1264.00
2023-04-05T12:05:54.305Z,1256.00
2023-04-05T12:06:54.290Z,1248.00
2023-04-05T12:08:49.493Z,1236.00
2023-04-05T12:09:49.494Z,1232.00
2023-04-05T12:11:44.255Z,1228.00
2023-04-05T12:12:44.263Z,1220.00
2023-04-05T12:14:40.689Z,1216.00
2023-04-05T12:15:40.822Z,1216.00
2023-04-05T12:17:37.123Z,1208.00
2023-04-05T12:18:37.105Z,1208.00
2023-04-05T12:20:32.510Z,1204.00
2023-04-05T12:21:32.489Z,1204.00
2023-04-05T12:23:26.558Z,1196.00
2023-04-05T12:24:26.544Z,1204.00
2023-04-05T12:26:22.929Z,1204.00
2023-04-05T12:27:22.915Z,1204.00
2023-04-05T12:29:17.084Z,1196.00
2023-04-05T12:30:17.333Z,1196.00
2023-04-05T12:32:11.250Z,1192.00
2023-04-05T12:33:11.168Z,1188.00
2023-04-05T12:35:05.911Z,1188.00
2023-04-05T12:36:05.921Z,1180.00
2023-04-05T12:38:02.288Z,1188.00
2023-04-05T12:39:02.151Z,1184.00
2023-04-05T12:40:58.374Z,1196.00
2023-04-05T12:41:58.356Z,1200.00
2023-04-05T12:43:53.457Z,1204.00
2023-04-05T12:44:53.450Z,1196.00
2023-04-05T12:46:47.963Z,1184.00
2023-04-05T12:47:47.903Z,1180.00
2023-04-05T12:49:43.221Z,1188.00
2023-04-05T12:50:43.196Z,1200.00
2023-04-05T12:52:37.462Z,1232.00
2023-04-05T12:53:37.454Z,1228.00
2023-04-05T12:55:31.590Z,1208.00
2023-04-05T12:56:31.586Z,1204.00
2023-04-05T12:58:25.607Z,1200.00
2023-04-05T12:59:25.668Z,1204.00
2023-04-05T13:01:20.668Z,1216.00
2023-04-05T13:02:20.666Z,1208.00
2023-04-05T13:04:16.955Z,1208.00
2023-04-05T13:05:15.873Z,1228.00
2023-04-05T13:07:09.937Z,1232.00
2023-04-05T13:08:09.925Z,1220.00
2023-04-05T13:10:05.090Z,1204.00
2023-04-05T13:11:05.074Z,1196.00
2023-04-05T13:13:00.252Z,1192.00
2023-04-05T13:14:00.234Z,1208.00
2023-04-05T13:15:55.297Z,1264.00
2023-04-05T13:16:55.224Z,1192.00
2023-04-05T13:18:50.400Z,1184.00
2023-04-05T13:19:50.136Z,1184.00
2023-04-05T13:21:44.325Z,1188.00
2023-04-05T13:22:44.254Z,1188.00
2023-04-05T13:24:38.445Z,1192.00
2023-04-05T13:25:38.410Z,1196.00
2023-04-05T13:27:48.414Z,1200.00
2023-04-05T13:28:33.691Z,1200.00
2023-04-05T13:29:33.367Z,1200.00
2023-04-05T13:30:33.316Z,1196.00
2023-04-05T13:31:33.347Z,1204.00
2023-04-05T13:32:33.339Z,1204.00
2023-04-05T13:33:33.322Z,1208.00
2023-04-05T13:34:33.299Z,1212.00
2023-04-05T13:35:33.348Z,1220.00
2023-04-05T13:36:33.302Z,1224.00
2023-04-05T13:37:33.291Z,1232.00
2023-04-05T13:38:33.280Z,1252.00
2023-04-05T13:39:33.259Z,1280.00
2023-04-05T13:40:33.280Z,1324.00
2023-04-05T13:41:33.265Z,1368.00
2023-04-05T13:42:33.247Z,1384.00
2023-04-05T13:43:33.245Z,1376.00
2023-04-05T13:44:33.250Z,1340.00
2023-04-05T13:45:33.225Z,1320.00
2023-04-05T13:46:33.280Z,1312.00
2023-04-05T13:47:33.224Z,1300.00
2023-04-05T13:48:33.222Z,1280.00
2023-04-05T13:49:33.193Z,1272.00
2023-04-05T13:50:33.252Z,1264.00
2023-04-05T13:51:33.175Z,1252.00
2023-04-05T13:52:33.213Z,1228.00
2023-04-05T13:53:33.163Z,1212.00
2023-04-05T13:54:33.225Z,1208.00
2023-04-05T13:55:33.161Z,1208.00
2023-04-05T13:56:33.222Z,1208.00
2023-04-05T13:57:33.178Z,1208.00
2023-04-05T13:58:33.181Z,1208.00
2023-04-05T13:59:33.228Z,1204.00
2023-04-05T14:00:33.145Z,1200.00
2023-04-05T14:01:33.214Z,1200.00
2023-04-05T14:02:33.140Z,1196.00
2023-04-05T14:03:33.249Z,1200.00
2023-04-05T14:04:33.111Z,1192.00
2023-04-05T14:05:33.127Z,1192.00
2023-04-05T14:06:33.118Z,1188.00
2023-04-05T14:07:33.087Z,1184.00
2023-04-05T14:08:33.087Z,1180.00
2023-04-05T14:09:33.085Z,1176.00
2023-04-05T14:10:33.108Z,1180.00
2023-04-05T14:11:33.080Z,1172.00
2023-04-05T14:12:33.102Z,1172.00
2023-04-05T14:13:33.079Z,1168.00
2023-04-05T14:14:33.098Z,1168.00
2023-04-05T14:15:33.073Z,1164.00
2023-04-05T14:16:33.067Z,1164.00
2023-04-05T14:17:33.087Z,1160.00
2023-04-05T14:18:33.074Z,1152.00
2023-04-05T14:19:33.041Z,1152.00
2023-04-05T14:20:33.065Z,1152.00
2023-04-05T14:21:33.094Z,1148.00
2023-04-05T14:22:33.017Z,1148.00
2023-04-05T14:23:33.048Z,1148.00
2023-04-05T14:24:33.005Z,1148.00
2023-04-05T14:25:33.050Z,1108.00
2023-04-05T14:26:33.050Z,1140.00
2023-04-05T14:27:33.011Z,1144.00
2023-04-05T14:28:32.994Z,1144.00
2023-04-05T14:29:33.017Z,1132.00
2023-04-05T14:30:32.990Z,1128.00
2023-04-05T14:31:32.991Z,1128.00
2023-04-05T14:32:33.972Z,1132.00
2023-04-05T14:33:32.952Z,1132.00
2023-04-05T14:34:32.946Z,1128.00
2023-04-05T14:35:33.010Z,1128.00
2023-04-05T14:36:32.976Z,1128.00
2023-04-05T14:37:32.958Z,1132.00
2023-04-05T14:38:32.981Z,1128.00
2023-04-05T14:39:32.938Z,1136.00
2023-04-05T14:40:32.972Z,1136.00
2023-04-05T14:41:32.917Z,1132.00
2023-04-05T14:42:47.474Z,1128.00
2023-04-05T14:43:32.910Z,1132.00
2023-04-05T14:44:32.937Z,1124.00
2023-04-05T14:45:32.935Z,1128.00
2023-04-05T14:46:32.952Z,1132.00
2023-04-05T14:47:32.938Z,1132.00
2023-04-05T14:48:32.946Z,1124.00
2023-04-05T14:49:32.912Z,1124.00
2023-04-05T14:50:32.898Z,1124.00